sensor_id;sensor_type;location;lat;lon;timestamp;temperature;humidity
26081;DHT22;13991;51.174;4.438;2022-11-20T00:02:20;6.20;99.90
26081;DHT22;13991;51.174;4.438;2022-11-20T00:04:45;6.00;99.90
26081;DHT22;13991;51.174;4.438;2022-11-20T00:07:11;5.90;99.90
26081;DHT22;13991;51.174;4.438;2022-11-20T00:09:37;6.10;99.90
26081;DHT22;13991;51.174;4.438;2022-11-20T00:12:02;6.00;99.90
26081;DHT22;13991;51.174;4.438;2022-11-20T00:14:28;6.00;99.90
26081;DHT22;13991;51.174;4.438;2022-11-20T00:16:54;6.10;99.90
26081;DHT22;13991;51.174;4.438;2022-11-20T00:19:19;6.10;99.90
26081;DHT22;13991;51.174;4.438;2022-11-20T00:21:45;6.10;99.90
26081;DHT22;13991;51.174;4.438;2022-11-20T00:24:11;6.30;99.90
26081;DHT22;13991;51.174;4.438;2022-11-20T00:26:37;6.10;99.90
26081;DHT22;13991;51.174;4.438;2022-11-20T00:29:03;6.10;99.90
26081;DHT22;13991;51.174;4.438;2022-11-20T00:31:30;6.10;99.90
26081;DHT22;13991;51.174;4.438;2022-11-20T00:33:56;6.10;99.90
26081;DHT22;13991;51.174;4.438;2022-11-20T00:36:23;6.10;99.90
26081;DHT22;13991;51.174;4.438;2022-11-20T00:38:54;6.00;99.90
26081;DHT22;13991;51.174;4.438;2022-11-20T00:41:20;6.00;99.90
26081;DHT22;13991;51.174;4.438;2022-11-20T00:43:46;6.00;99.90
26081;DHT22;13991;51.174;4.438;2022-11-20T00:46:20;6.10;99.90
26081;DHT22;13991;51.174;4.438;2022-11-20T00:48:46;6.10;99.90
26081;DHT22;13991;51.174;4.438;2022-11-20T00:51:15;6.30;99.90
26081;DHT22;13991;51.174;4.438;2022-11-20T00:53:41;6.20;99.90
26081;DHT22;13991;51.174;4.438;2022-11-20T00:56:09;6.10;99.90
26081;DHT22;13991;51.174;4.438;2022-11-20T00:58:37;6.20;99.90
26081;DHT22;13991;51.174;4.438;2022-11-20T01:01:05;6.20;99.90
26081;DHT22;13991;51.174;4.438;2022-11-20T01:03:32;6.20;99.90
26081;DHT22;13991;51.174;4.438;2022-11-20T01:06:02;6.10;99.90
26081;DHT22;13991;51.174;4.438;2022-11-20T01:08:30;6.10;99.90
26081;DHT22;13991;51.174;4.438;2022-11-20T01:11:05;6.10;99.90
26081;DHT22;13991;51.174;4.438;2022-11-20T01:13:32;6.10;99.90
26081;DHT22;13991;51.174;4.438;2022-11-20T01:18:31;6.10;99.90
26081;DHT22;13991;51.174;4.438;2022-11-20T01:21:06;6.10;99.90
26081;DHT22;13991;51.174;4.438;2022-11-20T01:23:36;6.10;99.90
26081;DHT22;13991;51.174;4.438;2022-11-20T01:26:05;6.10;99.90
26081;DHT22;13991;51.174;4.438;2022-11-20T01:28:32;6.20;99.90
26081;DHT22;13991;51.174;4.438;2022-11-20T01:31:05;6.20;99.90
26081;DHT22;13991;51.174;4.438;2022-11-20T01:33:39;6.10;99.90
26081;DHT22;13991;51.174;4.438;2022-11-20T01:36:06;6.10;99.90
26081;DHT22;13991;51.174;4.438;2022-11-20T01:38:32;6.20;99.90
26081;DHT22;13991;51.174;4.438;2022-11-20T01:40:58;6.10;99.90
26081;DHT22;13991;51.174;4.438;2022-11-20T01:43:24;6.00;99.90
26081;DHT22;13991;51.174;4.438;2022-11-20T01:46:22;6.00;99.90
26081;DHT22;13991;51.174;4.438;2022-11-20T01:51:54;5.90;99.90
26081;DHT22;13991;51.174;4.438;2022-11-20T01:54:41;5.80;99.90
26081;DHT22;13991;51.174;4.438;2022-11-20T01:57:10;5.90;99.90
26081;DHT22;13991;51.174;4.438;2022-11-20T01:59:40;5.90;99.90
26081;DHT22;13991;51.174;4.438;2022-11-20T02:02:07;5.90;99.90
26081;DHT22;13991;51.174;4.438;2022-11-20T02:04:33;6.00;99.90
26081;DHT22;13991;51.174;4.438;2022-11-20T02:07:00;5.90;99.90
26081;DHT22;13991;51.174;4.438;2022-11-20T02:09:27;5.90;99.90
26081;DHT22;13991;51.174;4.438;2022-11-20T02:11:53;5.90;99.90
26081;DHT22;13991;51.174;4.438;2022-11-20T02:14:21;5.90;99.90
26081;DHT22;13991;51.174;4.438;2022-11-20T02:16:48;5.90;99.90
26081;DHT22;13991;51.174;4.438;2022-11-20T02:19:24;5.90;99.90
26081;DHT22;13991;51.174;4.438;2022-11-20T02:24:26;5.80;99.90
26081;DHT22;13991;51.174;4.438;2022-11-20T02:26:53;5.80;99.90
26081;DHT22;13991;51.174;4.438;2022-11-20T02:29:45;5.70;99.90
26081;DHT22;13991;51.174;4.438;2022-11-20T02:32:20;5.70;99.90
26081;DHT22;13991;51.174;4.438;2022-11-20T02:34:46;5.80;99.90
26081;DHT22;13991;51.174;4.438;2022-11-20T02:37:12;5.90;99.90
26081;DHT22;13991;51.174;4.438;2022-11-20T02:39:40;5.90;99.90
26081;DHT22;13991;51.174;4.438;2022-11-20T02:42:06;6.00;99.90
26081;DHT22;13991;51.174;4.438;2022-11-20T02:44:31;5.90;99.90
26081;DHT22;13991;51.174;4.438;2022-11-20T02:46:58;5.90;99.90
26081;DHT22;13991;51.174;4.438;2022-11-20T02:49:24;5.90;99.90
26081;DHT22;13991;51.174;4.438;2022-11-20T02:51:50;5.90;99.90
26081;DHT22;13991;51.174;4.438;2022-11-20T02:54:15;5.90;99.90
26081;DHT22;13991;51.174;4.438;2022-11-20T02:56:41;5.90;99.90
26081;DHT22;13991;51.174;4.438;2022-11-20T02:59:07;5.90;99.90
26081;DHT22;13991;51.174;4.438;2022-11-20T03:01:33;5.90;99.90
26081;DHT22;13991;51.174;4.438;2022-11-20T03:03:58;5.90;99.90
26081;DHT22;13991;51.174;4.438;2022-11-20T03:06:24;5.90;99.90
26081;DHT22;13991;51.174;4.438;2022-11-20T03:08:50;5.90;99.90
26081;DHT22;13991;51.174;4.438;2022-11-20T03:11:16;6.00;99.90
26081;DHT22;13991;51.174;4.438;2022-11-20T03:13:42;6.00;99.90
26081;DHT22;13991;51.174;4.438;2022-11-20T03:16:13;5.80;99.90
26081;DHT22;13991;51.174;4.438;2022-11-20T03:18:40;5.80;99.90
26081;DHT22;13991;51.174;4.438;2022-11-20T03:21:07;5.80;99.90
26081;DHT22;13991;51.174;4.438;2022-11-20T03:23:33;5.80;99.90
26081;DHT22;13991;51.174;4.438;2022-11-20T03:26:09;5.80;99.90
26081;DHT22;13991;51.174;4.438;2022-11-20T03:28:36;5.90;99.90
26081;DHT22;13991;51.174;4.438;2022-11-20T03:31:10;5.90;99.90
26081;DHT22;13991;51.174;4.438;2022-11-20T03:33:36;5.90;99.90
26081;DHT22;13991;51.174;4.438;2022-11-20T03:36:07;5.90;99.90
26081;DHT22;13991;51.174;4.438;2022-11-20T03:38:32;5.90;99.90
26081;DHT22;13991;51.174;4.438;2022-11-20T03:41:04;5.90;99.90
26081;DHT22;13991;51.174;4.438;2022-11-20T03:47:25;6.10;99.90
26081;DHT22;13991;51.174;4.438;2022-11-20T04:04:09;5.90;99.90
26081;DHT22;13991;51.174;4.438;2022-11-20T04:07:26;5.90;99.90
26081;DHT22;13991;51.174;4.438;2022-11-20T04:13:58;5.60;99.90
26081;DHT22;13991;51.174;4.438;2022-11-20T04:24:37;5.80;99.90
26081;DHT22;13991;51.174;4.438;2022-11-20T04:41:23;5.80;99.90
26081;DHT22;13991;51.174;4.438;2022-11-20T04:45:09;5.80;99.90
26081;DHT22;13991;51.174;4.438;2022-11-20T04:48:35;6.00;99.90
26081;DHT22;13991;51.174;4.438;2022-11-20T04:52:09;6.00;99.90
26081;DHT22;13991;51.174;4.438;2022-11-20T04:55:40;5.90;99.90
26081;DHT22;13991;51.174;4.438;2022-11-20T05:05:50;5.90;99.90
26081;DHT22;13991;51.174;4.438;2022-11-20T05:09:15;5.80;99.90
26081;DHT22;13991;51.174;4.438;2022-11-20T05:12:33;5.80;99.90
26081;DHT22;13991;51.174;4.438;2022-11-20T05:19:38;5.80;99.90
26081;DHT22;13991;51.174;4.438;2022-11-20T05:43:19;6.00;99.90
26081;DHT22;13991;51.174;4.438;2022-11-20T05:46:20;6.00;99.90
26081;DHT22;13991;51.174;4.438;2022-11-20T05:49:24;6.00;99.90
26081;DHT22;13991;51.174;4.438;2022-11-20T05:52:11;6.10;99.90
26081;DHT22;13991;51.174;4.438;2022-11-20T05:58:29;6.00;99.90
26081;DHT22;13991;51.174;4.438;2022-11-20T06:01:36;5.90;99.90
26081;DHT22;13991;51.174;4.438;2022-11-20T06:04:23;5.90;99.90
26081;DHT22;13991;51.174;4.438;2022-11-20T06:07:08;5.80;99.90
26081;DHT22;13991;51.174;4.438;2022-11-20T06:10:07;5.70;99.90
26081;DHT22;13991;51.174;4.438;2022-11-20T06:13:29;5.80;99.90
26081;DHT22;13991;51.174;4.438;2022-11-20T06:16:21;5.80;99.90
26081;DHT22;13991;51.174;4.438;2022-11-20T06:26:41;5.70;99.90
26081;DHT22;13991;51.174;4.438;2022-11-20T06:30:12;5.70;99.90
26081;DHT22;13991;51.174;4.438;2022-11-20T06:32:54;5.80;99.90
26081;DHT22;13991;51.174;4.438;2022-11-20T06:35:26;5.90;99.90
26081;DHT22;13991;51.174;4.438;2022-11-20T06:38:01;5.90;99.90
26081;DHT22;13991;51.174;4.438;2022-11-20T06:41:14;5.90;99.90
26081;DHT22;13991;51.174;4.438;2022-11-20T06:47:08;5.70;99.90
26081;DHT22;13991;51.174;4.438;2022-11-20T06:50:06;5.90;99.90
26081;DHT22;13991;51.174;4.438;2022-11-20T06:53:18;5.80;99.90
26081;DHT22;13991;51.174;4.438;2022-11-20T07:00:26;5.80;99.90
26081;DHT22;13991;51.174;4.438;2022-11-20T07:03:56;5.80;99.90
26081;DHT22;13991;51.174;4.438;2022-11-20T07:14:41;5.90;99.90
26081;DHT22;13991;51.174;4.438;2022-11-20T07:18:04;5.90;99.90
26081;DHT22;13991;51.174;4.438;2022-11-20T07:21:20;6.00;99.90
26081;DHT22;13991;51.174;4.438;2022-11-20T07:24:08;6.00;99.90
26081;DHT22;13991;51.174;4.438;2022-11-20T07:27:14;6.00;99.90
26081;DHT22;13991;51.174;4.438;2022-11-20T07:30:42;6.00;99.90
26081;DHT22;13991;51.174;4.438;2022-11-20T07:34:09;6.10;99.90
26081;DHT22;13991;51.174;4.438;2022-11-20T07:37:26;6.10;99.90
26081;DHT22;13991;51.174;4.438;2022-11-20T07:40:23;6.10;99.90
26081;DHT22;13991;51.174;4.438;2022-11-20T07:43:30;6.10;99.90
26081;DHT22;13991;51.174;4.438;2022-11-20T07:47:08;6.10;99.90
26081;DHT22;13991;51.174;4.438;2022-11-20T07:57:09;6.40;99.90
26081;DHT22;13991;51.174;4.438;2022-11-20T07:59:40;6.40;99.90
26081;DHT22;13991;51.174;4.438;2022-11-20T08:02:25;6.30;99.90
26081;DHT22;13991;51.174;4.438;2022-11-20T08:05:37;6.30;99.90
26081;DHT22;13991;51.174;4.438;2022-11-20T08:09:03;6.40;99.90
26081;DHT22;13991;51.174;4.438;2022-11-20T08:16:01;6.40;99.90
26081;DHT22;13991;51.174;4.438;2022-11-20T08:18:36;6.40;99.90
26081;DHT22;13991;51.174;4.438;2022-11-20T08:21:11;6.40;99.90
26081;DHT22;13991;51.174;4.438;2022-11-20T08:24:24;6.50;99.90
26081;DHT22;13991;51.174;4.438;2022-11-20T08:27:33;6.70;99.90
26081;DHT22;13991;51.174;4.438;2022-11-20T08:30:28;6.60;99.90
26081;DHT22;13991;51.174;4.438;2022-11-20T08:33:08;6.60;99.90
26081;DHT22;13991;51.174;4.438;2022-11-20T08:39:18;6.70;99.90
26081;DHT22;13991;51.174;4.438;2022-11-20T08:48:48;6.80;99.90
26081;DHT22;13991;51.174;4.438;2022-11-20T08:55:12;6.60;99.90
26081;DHT22;13991;51.174;4.438;2022-11-20T09:08:21;7.00;99.90
26081;DHT22;13991;51.174;4.438;2022-11-20T09:15:00;6.80;99.90
26081;DHT22;13991;51.174;4.438;2022-11-20T09:18:12;6.90;99.90
26081;DHT22;13991;51.174;4.438;2022-11-20T09:21:15;6.90;99.90
26081;DHT22;13991;51.174;4.438;2022-11-20T09:41:13;7.30;99.90
26081;DHT22;13991;51.174;4.438;2022-11-20T09:49:32;7.50;99.90
26081;DHT22;13991;51.174;4.438;2022-11-20T09:52:30;7.50;99.90
26081;DHT22;13991;51.174;4.438;2022-11-20T09:54:57;7.60;99.90
26081;DHT22;13991;51.174;4.438;2022-11-20T09:57:36;7.50;99.90
26081;DHT22;13991;51.174;4.438;2022-11-20T10:00:04;7.50;99.90
26081;DHT22;13991;51.174;4.438;2022-11-20T10:05:51;7.60;99.90
26081;DHT22;13991;51.174;4.438;2022-11-20T10:11:10;7.60;99.90
26081;DHT22;13991;51.174;4.438;2022-11-20T10:19:54;7.80;99.90
26081;DHT22;13991;51.174;4.438;2022-11-20T10:25:20;7.90;99.90
26081;DHT22;13991;51.174;4.438;2022-11-20T10:30:24;7.90;99.90
26081;DHT22;13991;51.174;4.438;2022-11-20T10:33:17;7.90;99.90
26081;DHT22;13991;51.174;4.438;2022-11-20T10:35:57;7.90;99.90
26081;DHT22;13991;51.174;4.438;2022-11-20T10:40:58;8.10;99.90
26081;DHT22;13991;51.174;4.438;2022-11-20T10:43:45;8.10;99.90
26081;DHT22;13991;51.174;4.438;2022-11-20T10:46:18;8.20;99.90
26081;DHT22;13991;51.174;4.438;2022-11-20T10:48:46;8.30;99.90
26081;DHT22;13991;51.174;4.438;2022-11-20T10:54:39;8.40;99.90
26081;DHT22;13991;51.174;4.438;2022-11-20T11:02:39;8.40;99.90
26081;DHT22;13991;51.174;4.438;2022-11-20T11:05:29;8.50;99.90
26081;DHT22;13991;51.174;4.438;2022-11-20T11:07:58;8.40;99.90
26081;DHT22;13991;51.174;4.438;2022-11-20T11:10:39;8.50;99.90
26081;DHT22;13991;51.174;4.438;2022-11-20T11:13:06;8.70;99.90
26081;DHT22;13991;51.174;4.438;2022-11-20T11:15:40;8.70;99.90
26081;DHT22;13991;51.174;4.438;2022-11-20T11:18:10;8.70;99.90
26081;DHT22;13991;51.174;4.438;2022-11-20T11:20:37;8.70;99.90
26081;DHT22;13991;51.174;4.438;2022-11-20T11:23:03;8.90;99.90
26081;DHT22;13991;51.174;4.438;2022-11-20T11:25:33;8.90;99.90
26081;DHT22;13991;51.174;4.438;2022-11-20T11:28:02;9.00;99.90
26081;DHT22;13991;51.174;4.438;2022-11-20T11:30:29;8.90;99.90
26081;DHT22;13991;51.174;4.438;2022-11-20T11:33:09;8.90;99.90
26081;DHT22;13991;51.174;4.438;2022-11-20T11:35:43;9.10;99.90
26081;DHT22;13991;51.174;4.438;2022-11-20T11:38:21;9.20;99.90
26081;DHT22;13991;51.174;4.438;2022-11-20T11:40:48;9.30;99.90
26081;DHT22;13991;51.174;4.438;2022-11-20T11:43:25;9.30;99.90
26081;DHT22;13991;51.174;4.438;2022-11-20T12:00:00;9.60;99.90
26081;DHT22;13991;51.174;4.438;2022-11-20T12:05:19;9.80;99.90
26081;DHT22;13991;51.174;4.438;2022-11-20T12:07:56;9.80;99.90
26081;DHT22;13991;51.174;4.438;2022-11-20T12:15:56;10.00;99.90
26081;DHT22;13991;51.174;4.438;2022-11-20T12:18:23;9.90;99.90
26081;DHT22;13991;51.174;4.438;2022-11-20T12:24:20;9.90;99.90
26081;DHT22;13991;51.174;4.438;2022-11-20T12:29:27;9.90;99.90
26081;DHT22;13991;51.174;4.438;2022-11-20T12:35:12;9.90;99.90
26081;DHT22;13991;51.174;4.438;2022-11-20T12:43:36;9.90;99.90
26081;DHT22;13991;51.174;4.438;2022-11-20T12:50:14;9.80;99.90
26081;DHT22;13991;51.174;4.438;2022-11-20T12:52:48;9.80;99.90
26081;DHT22;13991;51.174;4.438;2022-11-20T13:00:26;9.80;99.90
26081;DHT22;13991;51.174;4.438;2022-11-20T13:03:23;9.80;99.90
26081;DHT22;13991;51.174;4.438;2022-11-20T13:06:12;9.70;99.90
26081;DHT22;13991;51.174;4.438;2022-11-20T13:08:40;9.60;99.90
26081;DHT22;13991;51.174;4.438;2022-11-20T13:11:17;9.50;99.90
26081;DHT22;13991;51.174;4.438;2022-11-20T13:16:38;9.50;99.90
26081;DHT22;13991;51.174;4.438;2022-11-20T13:19:13;9.60;99.90
26081;DHT22;13991;51.174;4.438;2022-11-20T13:21:42;9.70;99.90
26081;DHT22;13991;51.174;4.438;2022-11-20T13:24:30;9.60;99.90
26081;DHT22;13991;51.174;4.438;2022-11-20T13:27:03;9.50;99.90
26081;DHT22;13991;51.174;4.438;2022-11-20T13:29:29;9.60;99.90
26081;DHT22;13991;51.174;4.438;2022-11-20T13:32:21;9.60;99.90
26081;DHT22;13991;51.174;4.438;2022-11-20T13:34:55;9.60;99.90
26081;DHT22;13991;51.174;4.438;2022-11-20T13:37:33;9.60;99.90
26081;DHT22;13991;51.174;4.438;2022-11-20T13:43:01;9.50;99.90
26081;DHT22;13991;51.174;4.438;2022-11-20T13:45:30;9.50;99.90
26081;DHT22;13991;51.174;4.438;2022-11-20T13:47:57;9.50;99.90
26081;DHT22;13991;51.174;4.438;2022-11-20T13:53:29;9.40;99.90
26081;DHT22;13991;51.174;4.438;2022-11-20T14:01:24;9.50;99.90
26081;DHT22;13991;51.174;4.438;2022-11-20T14:03:51;9.50;99.90
26081;DHT22;13991;51.174;4.438;2022-11-20T14:08:55;9.40;99.90
26081;DHT22;13991;51.174;4.438;2022-11-20T14:11:29;9.50;99.90
26081;DHT22;13991;51.174;4.438;2022-11-20T14:14:15;9.50;99.90
26081;DHT22;13991;51.174;4.438;2022-11-20T14:16:41;9.50;99.90
26081;DHT22;13991;51.174;4.438;2022-11-20T14:19:25;9.30;99.90
26081;DHT22;13991;51.174;4.438;2022-11-20T14:22:39;9.40;99.90
26081;DHT22;13991;51.174;4.438;2022-11-20T14:24:39;9.30;99.90
26081;DHT22;13991;51.174;4.438;2022-11-20T14:27:20;9.20;99.90
26081;DHT22;13991;51.174;4.438;2022-11-20T14:29:49;9.20;99.90
26081;DHT22;13991;51.174;4.438;2022-11-20T14:32:17;9.30;99.90
26081;DHT22;13991;51.174;4.438;2022-11-20T14:34:45;9.30;99.90
26081;DHT22;13991;51.174;4.438;2022-11-20T14:37:13;9.30;99.90
26081;DHT22;13991;51.174;4.438;2022-11-20T14:39:47;9.40;99.90
26081;DHT22;13991;51.174;4.438;2022-11-20T14:42:18;9.50;99.90
26081;DHT22;13991;51.174;4.438;2022-11-20T14:44:45;9.60;99.90
26081;DHT22;13991;51.174;4.438;2022-11-20T14:47:13;9.50;99.90
26081;DHT22;13991;51.174;4.438;2022-11-20T14:49:41;9.60;99.90
26081;DHT22;13991;51.174;4.438;2022-11-20T14:52:16;9.80;99.90
26081;DHT22;13991;51.174;4.438;2022-11-20T14:57:21;9.70;99.90
26081;DHT22;13991;51.174;4.438;2022-11-20T14:59:47;9.60;99.90
26081;DHT22;13991;51.174;4.438;2022-11-20T15:02:13;9.60;99.90
26081;DHT22;13991;51.174;4.438;2022-11-20T15:04:50;9.60;99.90
26081;DHT22;13991;51.174;4.438;2022-11-20T15:07:34;9.60;99.90
26081;DHT22;13991;51.174;4.438;2022-11-20T15:10:06;9.60;99.90
26081;DHT22;13991;51.174;4.438;2022-11-20T15:12:34;9.60;99.90
26081;DHT22;13991;51.174;4.438;2022-11-20T15:15:01;9.60;99.90
26081;DHT22;13991;51.174;4.438;2022-11-20T15:17:28;9.70;99.90
26081;DHT22;13991;51.174;4.438;2022-11-20T15:19:54;9.70;99.90
26081;DHT22;13991;51.174;4.438;2022-11-20T15:22:20;9.80;99.90
26081;DHT22;13991;51.174;4.438;2022-11-20T15:24:46;9.80;99.90
26081;DHT22;13991;51.174;4.438;2022-11-20T15:27:12;9.80;99.90
26081;DHT22;13991;51.174;4.438;2022-11-20T15:29:37;9.80;99.90
26081;DHT22;13991;51.174;4.438;2022-11-20T15:32:03;9.80;99.90
26081;DHT22;13991;51.174;4.438;2022-11-20T15:34:29;9.90;99.90
26081;DHT22;13991;51.174;4.438;2022-11-20T15:36:55;10.00;99.90
26081;DHT22;13991;51.174;4.438;2022-11-20T15:39:20;10.00;99.90
26081;DHT22;13991;51.174;4.438;2022-11-20T15:41:46;10.00;99.90
26081;DHT22;13991;51.174;4.438;2022-11-20T15:44:12;10.00;99.90
26081;DHT22;13991;51.174;4.438;2022-11-20T15:46:41;10.10;99.90
26081;DHT22;13991;51.174;4.438;2022-11-20T15:49:12;10.00;99.90
26081;DHT22;13991;51.174;4.438;2022-11-20T15:51:41;10.00;99.90
26081;DHT22;13991;51.174;4.438;2022-11-20T15:54:19;10.00;99.90
26081;DHT22;13991;51.174;4.438;2022-11-20T15:56:46;10.00;99.90
26081;DHT22;13991;51.174;4.438;2022-11-20T15:59:12;9.90;99.90
26081;DHT22;13991;51.174;4.438;2022-11-20T16:01:40;9.90;99.90
26081;DHT22;13991;51.174;4.438;2022-11-20T16:04:14;9.80;99.90
26081;DHT22;13991;51.174;4.438;2022-11-20T16:06:40;9.80;99.90
26081;DHT22;13991;51.174;4.438;2022-11-20T16:09:06;9.80;99.90
26081;DHT22;13991;51.174;4.438;2022-11-20T16:11:33;9.80;99.90
26081;DHT22;13991;51.174;4.438;2022-11-20T16:14:02;9.80;99.90
26081;DHT22;13991;51.174;4.438;2022-11-20T16:16:46;9.70;99.90
26081;DHT22;13991;51.174;4.438;2022-11-20T16:19:16;9.60;99.90
26081;DHT22;13991;51.174;4.438;2022-11-20T16:21:43;9.70;99.90
26081;DHT22;13991;51.174;4.438;2022-11-20T16:24:14;9.70;99.90
26081;DHT22;13991;51.174;4.438;2022-11-20T16:26:40;9.60;99.90
26081;DHT22;13991;51.174;4.438;2022-11-20T16:29:06;9.60;99.90
26081;DHT22;13991;51.174;4.438;2022-11-20T16:31:32;9.60;99.90
26081;DHT22;13991;51.174;4.438;2022-11-20T16:34:01;9.70;99.90
26081;DHT22;13991;51.174;4.438;2022-11-20T16:36:28;9.50;99.90
26081;DHT22;13991;51.174;4.438;2022-11-20T16:38:59;9.60;99.90
26081;DHT22;13991;51.174;4.438;2022-11-20T16:41:27;9.60;99.90
26081;DHT22;13991;51.174;4.438;2022-11-20T16:43:55;9.40;99.90
26081;DHT22;13991;51.174;4.438;2022-11-20T16:46:26;9.40;99.90
26081;DHT22;13991;51.174;4.438;2022-11-20T16:48:55;9.40;99.90
26081;DHT22;13991;51.174;4.438;2022-11-20T16:51:22;9.40;99.90
26081;DHT22;13991;51.174;4.438;2022-11-20T16:53:52;9.40;99.90
26081;DHT22;13991;51.174;4.438;2022-11-20T16:56:21;9.30;99.90
26081;DHT22;13991;51.174;4.438;2022-11-20T16:58:48;9.30;99.90
26081;DHT22;13991;51.174;4.438;2022-11-20T17:01:17;9.30;99.90
26081;DHT22;13991;51.174;4.438;2022-11-20T17:03:45;9.40;99.90
26081;DHT22;13991;51.174;4.438;2022-11-20T17:06:17;9.30;99.90
26081;DHT22;13991;51.174;4.438;2022-11-20T17:08:47;9.30;99.90
26081;DHT22;13991;51.174;4.438;2022-11-20T17:11:17;9.30;99.90
26081;DHT22;13991;51.174;4.438;2022-11-20T17:13:44;9.30;99.90
26081;DHT22;13991;51.174;4.438;2022-11-20T17:16:16;9.40;99.90
26081;DHT22;13991;51.174;4.438;2022-11-20T17:18:42;9.50;99.90
26081;DHT22;13991;51.174;4.438;2022-11-20T17:21:08;9.60;99.90
26081;DHT22;13991;51.174;4.438;2022-11-20T17:23:42;9.60;99.90
26081;DHT22;13991;51.174;4.438;2022-11-20T17:26:13;9.70;99.90
26081;DHT22;13991;51.174;4.438;2022-11-20T17:28:40;9.70;99.90
26081;DHT22;13991;51.174;4.438;2022-11-20T17:31:12;9.60;99.90
26081;DHT22;13991;51.174;4.438;2022-11-20T17:33:39;9.50;99.90
26081;DHT22;13991;51.174;4.438;2022-11-20T17:36:06;9.40;99.90
26081;DHT22;13991;51.174;4.438;2022-11-20T17:38:33;9.30;99.90
26081;DHT22;13991;51.174;4.438;2022-11-20T17:41:07;9.40;99.90
26081;DHT22;13991;51.174;4.438;2022-11-20T17:43:34;9.30;99.90
26081;DHT22;13991;51.174;4.438;2022-11-20T17:46:07;9.30;99.90
26081;DHT22;13991;51.174;4.438;2022-11-20T17:48:34;9.30;99.90
26081;DHT22;13991;51.174;4.438;2022-11-20T17:51:01;9.30;99.90
26081;DHT22;13991;51.174;4.438;2022-11-20T17:53:38;9.20;99.90
26081;DHT22;13991;51.174;4.438;2022-11-20T17:56:04;9.10;99.90
26081;DHT22;13991;51.174;4.438;2022-11-20T17:58:48;9.10;99.90
26081;DHT22;13991;51.174;4.438;2022-11-20T18:01:14;9.10;99.90
26081;DHT22;13991;51.174;4.438;2022-11-20T18:03:40;9.10;99.90
26081;DHT22;13991;51.174;4.438;2022-11-20T18:06:14;9.10;99.90
26081;DHT22;13991;51.174;4.438;2022-11-20T18:08:40;9.20;99.90
26081;DHT22;13991;51.174;4.438;2022-11-20T18:11:14;9.00;99.90
26081;DHT22;13991;51.174;4.438;2022-11-20T18:13:40;9.00;99.90
26081;DHT22;13991;51.174;4.438;2022-11-20T18:16:25;9.00;99.90
26081;DHT22;13991;51.174;4.438;2022-11-20T18:18:53;9.00;99.90
26081;DHT22;13991;51.174;4.438;2022-11-20T18:21:20;9.00;99.90
26081;DHT22;13991;51.174;4.438;2022-11-20T18:23:45;9.00;99.90
26081;DHT22;13991;51.174;4.438;2022-11-20T18:26:11;9.00;99.90
26081;DHT22;13991;51.174;4.438;2022-11-20T18:28:38;9.00;99.90
26081;DHT22;13991;51.174;4.438;2022-11-20T18:31:05;9.00;99.90
26081;DHT22;13991;51.174;4.438;2022-11-20T18:33:31;9.00;99.90
26081;DHT22;13991;51.174;4.438;2022-11-20T18:35:57;9.10;99.90
26081;DHT22;13991;51.174;4.438;2022-11-20T18:38:23;9.20;99.90
26081;DHT22;13991;51.174;4.438;2022-11-20T18:40:48;9.30;99.90
26081;DHT22;13991;51.174;4.438;2022-11-20T18:43:14;9.30;99.90
26081;DHT22;13991;51.174;4.438;2022-11-20T18:46:02;9.40;99.90
26081;DHT22;13991;51.174;4.438;2022-11-20T18:48:30;9.30;99.90
26081;DHT22;13991;51.174;4.438;2022-11-20T18:51:04;9.40;99.90
26081;DHT22;13991;51.174;4.438;2022-11-20T18:53:30;9.40;99.90
26081;DHT22;13991;51.174;4.438;2022-11-20T18:55:56;9.50;99.90
26081;DHT22;13991;51.174;4.438;2022-11-20T18:58:22;9.30;99.90
26081;DHT22;13991;51.174;4.438;2022-11-20T19:00:47;9.30;99.90
26081;DHT22;13991;51.174;4.438;2022-11-20T19:03:13;9.30;99.90
26081;DHT22;13991;51.174;4.438;2022-11-20T19:05:38;9.40;99.90
26081;DHT22;13991;51.174;4.438;2022-11-20T19:08:04;9.40;99.90
26081;DHT22;13991;51.174;4.438;2022-11-20T19:10:30;9.40;99.90
26081;DHT22;13991;51.174;4.438;2022-11-20T19:12:56;9.50;99.90
26081;DHT22;13991;51.174;4.438;2022-11-20T19:15:22;9.40;99.90
26081;DHT22;13991;51.174;4.438;2022-11-20T19:17:48;9.40;99.90
26081;DHT22;13991;51.174;4.438;2022-11-20T19:20:14;9.30;99.90
26081;DHT22;13991;51.174;4.438;2022-11-20T19:22:40;9.30;99.90
26081;DHT22;13991;51.174;4.438;2022-11-20T19:25:06;9.20;99.90
26081;DHT22;13991;51.174;4.438;2022-11-20T19:27:32;9.20;99.90
26081;DHT22;13991;51.174;4.438;2022-11-20T19:29:58;9.00;99.90
26081;DHT22;13991;51.174;4.438;2022-11-20T19:32:27;9.00;99.90
26081;DHT22;13991;51.174;4.438;2022-11-20T19:34:53;8.90;99.90
26081;DHT22;13991;51.174;4.438;2022-11-20T19:44:05;8.80;99.90
26081;DHT22;13991;51.174;4.438;2022-11-20T19:46:34;8.90;99.90
26081;DHT22;13991;51.174;4.438;2022-11-20T19:49:00;8.80;99.90
26081;DHT22;13991;51.174;4.438;2022-11-20T19:51:28;8.80;99.90
26081;DHT22;13991;51.174;4.438;2022-11-20T19:53:55;8.80;99.90
26081;DHT22;13991;51.174;4.438;2022-11-20T19:56:21;8.80;99.90
26081;DHT22;13991;51.174;4.438;2022-11-20T19:58:47;8.70;99.90
26081;DHT22;13991;51.174;4.438;2022-11-20T20:01:15;8.70;99.90
26081;DHT22;13991;51.174;4.438;2022-11-20T20:03:45;8.70;99.90
26081;DHT22;13991;51.174;4.438;2022-11-20T20:06:19;8.80;99.90
26081;DHT22;13991;51.174;4.438;2022-11-20T20:08:47;8.90;99.90
26081;DHT22;13991;51.174;4.438;2022-11-20T20:11:22;9.00;99.90
26081;DHT22;13991;51.174;4.438;2022-11-20T20:13:48;9.00;99.90
26081;DHT22;13991;51.174;4.438;2022-11-20T20:16:16;8.90;99.90
26081;DHT22;13991;51.174;4.438;2022-11-20T20:18:42;8.90;99.90
26081;DHT22;13991;51.174;4.438;2022-11-20T20:21:10;9.00;99.90
26081;DHT22;13991;51.174;4.438;2022-11-20T20:23:36;8.90;99.90
26081;DHT22;13991;51.174;4.438;2022-11-20T20:26:03;8.90;99.90
26081;DHT22;13991;51.174;4.438;2022-11-20T20:28:29;8.90;99.90
26081;DHT22;13991;51.174;4.438;2022-11-20T20:30:55;9.00;99.90
26081;DHT22;13991;51.174;4.438;2022-11-20T20:33:21;9.00;99.90
26081;DHT22;13991;51.174;4.438;2022-11-20T20:35:47;9.00;99.90
26081;DHT22;13991;51.174;4.438;2022-11-20T20:38:13;9.00;99.90
26081;DHT22;13991;51.174;4.438;2022-11-20T20:40:44;9.00;99.90
26081;DHT22;13991;51.174;4.438;2022-11-20T20:43:10;9.00;99.90
26081;DHT22;13991;51.174;4.438;2022-11-20T20:45:36;8.90;99.90
26081;DHT22;13991;51.174;4.438;2022-11-20T20:48:01;9.10;99.90
26081;DHT22;13991;51.174;4.438;2022-11-20T20:50:28;9.20;99.90
26081;DHT22;13991;51.174;4.438;2022-11-20T20:52:54;9.20;99.90
26081;DHT22;13991;51.174;4.438;2022-11-20T20:55:20;9.10;99.90
26081;DHT22;13991;51.174;4.438;2022-11-20T20:57:45;9.00;99.90
26081;DHT22;13991;51.174;4.438;2022-11-20T21:00:11;9.00;99.90
26081;DHT22;13991;51.174;4.438;2022-11-20T21:02:37;9.00;99.90
26081;DHT22;13991;51.174;4.438;2022-11-20T21:05:03;9.10;99.90
26081;DHT22;13991;51.174;4.438;2022-11-20T21:07:29;9.20;99.90
26081;DHT22;13991;51.174;4.438;2022-11-20T21:09:55;9.20;99.90